Terminal Aerodrome Forecast
Issued by NWS Mt. Holly, NJ

Home | Current Version | Previous Version | Text Only | Print | Product List | Glossary On
Versions: 1 2 3 4 5 6 7 8 9 10 11 12 13 14 15 16 17 18 19 20 21 22 23 24 25 26 27 28 29 30 31 32 33 34
000
FTUS41 KPHI 020101 AAA
TAFRDG
TAF AMD
KRDG 020101Z 0201/0224 05005KT P6SM -SHRA OVC008
     FM020500 04004KT 5SM BR OVC004
     FM021200 36004KT 4SM BR OVC005
     FM021600 03005KT P6SM BKN020
     FM021800 04006KT P6SM BKN050=

USA.gov is the U.S. government's official web portal to all federal, state and local government web resources and services.